createdAt,value
2023-05-14T00:00:48.081Z,8.22
2023-05-14T00:03:20.233Z,8.17
2023-05-14T00:05:48.216Z,8.16
2023-05-14T00:08:21.623Z,8.17
2023-05-14T00:10:48.497Z,8.16
2023-05-14T00:13:28.458Z,8.17
2023-05-14T00:16:01.408Z,8.14
2023-05-14T00:18:28.544Z,8.13
2023-05-14T00:20:56.259Z,8.12
2023-05-14T00:23:26.716Z,8.12
2023-05-14T00:25:56.312Z,8.08
2023-05-14T00:28:23.189Z,8.03
2023-05-14T00:30:50.713Z,8.04
2023-05-14T00:33:19.827Z,8.05
2023-05-14T00:35:46.806Z,8.11
2023-05-14T00:38:19.668Z,8.25
2023-05-14T00:40:51.420Z,8.28
2023-05-14T00:43:22.882Z,8.28
2023-05-14T00:45:58.649Z,8.35
2023-05-14T00:48:26.416Z,8.38
2023-05-14T00:50:59.102Z,8.40
2023-05-14T00:53:27.373Z,8.32
2023-05-14T00:55:58.793Z,8.30
2023-05-14T00:58:28.848Z,8.27
2023-05-14T01:00:56.282Z,8.27
2023-05-14T01:03:30.708Z,8.25
2023-05-14T01:06:43.965Z,8.47
2023-05-14T01:09:56.431Z,8.76
2023-05-14T01:13:06.697Z,9.26
2023-05-14T01:15:41.356Z,9.72
2023-05-14T01:18:13.641Z,10.09
2023-05-14T01:20:40.676Z,10.37
2023-05-14T01:23:07.725Z,10.50
2023-05-14T01:25:35.449Z,10.62
2023-05-14T01:28:31.420Z,10.67
2023-05-14T01:31:17.637Z,10.54
2023-05-14T01:33:48.729Z,10.46
2023-05-14T01:36:18.953Z,10.47
2023-05-14T01:38:49.581Z,10.52
2023-05-14T01:41:19.625Z,10.56
2023-05-14T01:43:47.141Z,10.66
2023-05-14T01:46:14.075Z,10.69
2023-05-14T01:48:41.433Z,10.73
2023-05-14T01:51:08.618Z,10.77
2023-05-14T01:53:35.366Z,10.88
2023-05-14T01:56:02.540Z,10.90
2023-05-14T01:58:31.943Z,10.86
2023-05-14T02:00:58.789Z,10.81
2023-05-14T02:03:26.623Z,10.80
2023-05-14T02:05:54.093Z,10.79
2023-05-14T02:08:21.274Z,10.81
2023-05-14T02:10:47.991Z,10.75
2023-05-14T02:13:14.791Z,10.73
2023-05-14T02:15:41.575Z,10.70
2023-05-14T02:18:08.421Z,10.76
2023-05-14T02:20:35.265Z,10.71
2023-05-14T02:23:02.071Z,10.60
2023-05-14T02:25:28.913Z,10.58
2023-05-14T02:27:55.784Z,10.52
2023-05-14T02:30:23.137Z,10.51
2023-05-14T02:32:50.488Z,10.39
2023-05-14T02:35:20.527Z,10.29
2023-05-14T02:37:49.932Z,10.24
2023-05-14T02:40:20.339Z,10.12
2023-05-14T02:42:47.223Z,9.98
2023-05-14T02:45:14.219Z,9.97
2023-05-14T02:47:41.124Z,9.95
2023-05-14T02:50:11.395Z,10.05
2023-05-14T02:52:38.249Z,10.12
2023-05-14T02:55:14.551Z,10.18
2023-05-14T02:57:41.529Z,10.35
2023-05-14T03:00:09.594Z,10.39
2023-05-14T03:02:36.721Z,10.38
2023-05-14T03:05:06.886Z,10.28
2023-05-14T03:07:33.632Z,10.17
2023-05-14T03:10:00.799Z,10.05
2023-05-14T03:12:28.887Z,9.97
2023-05-14T03:14:55.799Z,9.93
2023-05-14T03:17:28.914Z,10.19
2023-05-14T03:19:55.716Z,10.27
2023-05-14T03:22:26.265Z,10.34
2023-05-14T03:24:54.721Z,10.38
2023-05-14T03:27:24.056Z,10.34
2023-05-14T03:29:50.767Z,10.18
2023-05-14T03:32:20.034Z,9.97
2023-05-14T03:34:47.259Z,9.82
2023-05-14T03:37:14.143Z,9.70
2023-05-14T03:39:41.048Z,9.62
2023-05-14T03:42:08.085Z,9.68
2023-05-14T03:44:35.059Z,9.82
2023-05-14T03:47:02.011Z,9.93
2023-05-14T03:49:29.013Z,9.93
2023-05-14T03:51:58.198Z,10.08
2023-05-14T03:54:26.607Z,10.22
2023-05-14T03:56:53.570Z,10.29
2023-05-14T03:59:23.990Z,10.44
2023-05-14T04:01:50.965Z,10.55
2023-05-14T04:04:17.788Z,10.66
2023-05-14T04:06:47.721Z,10.77
2023-05-14T04:09:14.651Z,10.94
2023-05-14T04:11:41.324Z,11.13
2023-05-14T04:14:08.234Z,11.27
2023-05-14T04:16:41.309Z,11.36
2023-05-14T04:19:14.094Z,11.50
2023-05-14T04:21:43.873Z,11.61
2023-05-14T04:24:10.805Z,11.76
2023-05-14T04:26:37.603Z,11.92
2023-05-14T04:29:12.111Z,12.01
2023-05-14T04:31:43.404Z,12.17
2023-05-14T04:34:10.304Z,12.23
2023-05-14T04:36:42.528Z,12.33
2023-05-14T05:17:51.955Z,15.85
2023-05-14T05:33:50.898Z,16.22
2023-05-14T05:58:09.376Z,18.26
2023-05-14T06:08:59.031Z,19.11
2023-05-14T06:14:16.422Z,19.94
2023-05-14T06:46:52.255Z,20.52
2023-05-14T06:57:40.783Z,20.65
2023-05-14T07:35:29.295Z,23.45
2023-05-14T07:37:56.145Z,23.74
2023-05-14T07:40:26.556Z,23.85
2023-05-14T07:42:55.477Z,24.36
2023-05-14T07:45:22.527Z,24.43
2023-05-14T07:47:52.402Z,22.79
2023-05-14T07:50:24.185Z,23.67
2023-05-14T07:52:51.204Z,23.53
2023-05-14T07:55:18.268Z,24.22
2023-05-14T07:57:45.709Z,24.17
2023-05-14T08:00:13.991Z,23.13
2023-05-14T08:06:33.507Z,22.44
2023-05-14T08:09:09.914Z,23.69
2023-05-14T08:11:39.417Z,23.90
2023-05-14T08:14:14.107Z,22.87
2023-05-14T08:16:41.161Z,23.45
2023-05-14T08:19:08.072Z,23.67
2023-05-14T08:21:35.710Z,24.35
2023-05-14T08:24:05.298Z,24.00
2023-05-14T08:26:42.970Z,23.38
2023-05-14T08:29:11.001Z,23.90
2023-05-14T08:31:41.613Z,23.76
2023-05-14T08:34:08.502Z,22.80
2023-05-14T08:36:39.658Z,23.05
2023-05-14T08:39:09.489Z,23.92
2023-05-14T08:41:37.871Z,24.33
2023-05-14T08:44:22.332Z,24.50
2023-05-14T08:46:52.117Z,24.02
2023-05-14T08:49:48.389Z,23.77
2023-05-14T08:52:23.344Z,22.45
2023-05-14T08:54:55.954Z,22.39
2023-05-14T08:57:26.598Z,21.57
2023-05-14T08:59:57.228Z,22.05
2023-05-14T09:02:31.413Z,22.60
2023-05-14T09:05:02.596Z,22.84
2023-05-14T09:07:30.438Z,22.59
2023-05-14T09:09:57.379Z,23.07
2023-05-14T09:12:24.320Z,23.34
2023-05-14T09:14:51.831Z,22.83
2023-05-14T09:17:22.753Z,23.62
2023-05-14T09:19:53.570Z,23.36
2023-05-14T09:22:21.522Z,23.06
2023-05-14T09:25:14.804Z,22.68
2023-05-14T09:27:41.936Z,22.91
2023-05-14T09:30:36.908Z,23.25
2023-05-14T09:33:09.294Z,24.14
2023-05-14T09:35:50.691Z,24.12
2023-05-14T09:38:50.753Z,23.95
2023-05-14T09:41:23.134Z,23.62
2023-05-14T09:43:51.808Z,23.63
2023-05-14T09:46:22.686Z,24.24
2023-05-14T09:48:50.730Z,24.05
2023-05-14T09:51:19.969Z,24.38
2023-05-14T09:53:47.252Z,24.28
2023-05-14T09:56:17.549Z,24.44
2023-05-14T09:59:02.707Z,23.64
2023-05-14T10:02:18.034Z,24.78
2023-05-14T10:05:14.151Z,25.26
2023-05-14T10:07:56.793Z,25.35
2023-05-14T10:10:58.859Z,25.12
2023-05-14T10:13:49.521Z,26.26
2023-05-14T10:16:38.523Z,26.40
2023-05-14T10:22:19.953Z,25.66
2023-05-14T10:24:47.463Z,24.70
2023-05-14T10:27:17.124Z,25.26
2023-05-14T10:30:02.536Z,26.25
2023-05-14T10:32:40.571Z,25.00
2023-05-14T10:35:23.135Z,25.45
2023-05-14T10:37:59.409Z,25.36
2023-05-14T10:40:51.607Z,24.99
2023-05-14T10:43:21.454Z,25.01
2023-05-14T10:45:50.480Z,24.11
2023-05-14T10:48:46.887Z,24.80
2023-05-14T10:51:16.906Z,25.16
2023-05-14T10:53:46.071Z,26.00
2023-05-14T10:56:19.998Z,25.28
2023-05-14T10:59:02.369Z,26.16
2023-05-14T11:01:34.231Z,25.00
2023-05-14T11:04:09.006Z,24.07
2023-05-14T11:06:47.502Z,24.88
2023-05-14T11:09:20.330Z,24.45
2023-05-14T11:11:58.642Z,24.49
2023-05-14T11:14:25.698Z,24.32
2023-05-14T11:18:15.786Z,24.47
2023-05-14T11:20:02.477Z,25.24
2023-05-14T11:22:45.952Z,24.65
2023-05-14T11:25:14.692Z,23.89
2023-05-14T11:27:50.213Z,23.82
2023-05-14T11:30:23.038Z,23.29
2023-05-14T11:36:22.301Z,26.03
2023-05-14T11:38:53.654Z,26.39
2023-05-14T11:42:18.826Z,27.26
2023-05-14T11:44:56.859Z,27.48
2023-05-14T11:52:28.043Z,26.28
2023-05-14T11:55:08.833Z,27.56
2023-05-14T11:58:11.485Z,27.22
2023-05-14T12:00:59.780Z,26.87
2023-05-14T12:03:29.694Z,27.15
2023-05-14T12:06:09.097Z,25.51
2023-05-14T12:09:08.332Z,26.46
2023-05-14T12:11:57.528Z,25.77
2023-05-14T12:14:28.842Z,25.11
2023-05-14T12:16:58.127Z,25.61
2023-05-14T12:19:28.955Z,26.51
2023-05-14T12:22:03.414Z,26.11
2023-05-14T12:24:38.157Z,26.22
2023-05-14T12:27:07.560Z,25.75
2023-05-14T12:29:46.855Z,25.21
2023-05-14T12:32:14.992Z,25.78
2023-05-14T12:34:59.815Z,25.23
2023-05-14T12:37:36.501Z,25.86
2023-05-14T12:40:14.492Z,25.25
2023-05-14T12:42:44.138Z,24.15
2023-05-14T12:45:15.223Z,25.34
2023-05-14T12:47:42.024Z,25.13
2023-05-14T12:50:09.669Z,24.98
2023-05-14T12:52:48.803Z,23.63
2023-05-14T12:55:16.942Z,23.80
2023-05-14T12:57:56.381Z,24.23
2023-05-14T13:00:23.882Z,24.47
2023-05-14T13:05:44.318Z,23.62
2023-05-14T13:08:11.273Z,22.37
2023-05-14T13:10:38.147Z,22.10
2023-05-14T13:13:11.979Z,21.82
2023-05-14T13:15:57.416Z,21.80
2023-05-14T13:18:26.640Z,23.05
2023-05-14T13:21:12.644Z,23.91
2023-05-14T13:24:02.168Z,23.62
2023-05-14T13:26:40.191Z,22.41
2023-05-14T13:29:14.589Z,21.76
2023-05-14T13:31:41.587Z,21.45
2023-05-14T13:34:14.786Z,21.24
2023-05-14T13:36:43.827Z,21.18
2023-05-14T13:39:18.434Z,21.05
2023-05-14T13:41:50.757Z,20.93
2023-05-14T13:44:17.631Z,20.74
2023-05-14T13:46:44.686Z,20.68
2023-05-14T13:49:22.922Z,20.61
2023-05-14T13:52:13.436Z,20.42
2023-05-14T13:54:46.201Z,20.37
2023-05-14T13:57:13.115Z,20.44
2023-05-14T13:59:40.540Z,20.53
2023-05-14T14:02:17.837Z,20.59
2023-05-14T14:04:44.689Z,20.63
2023-05-14T14:07:11.569Z,20.54
2023-05-14T14:09:41.303Z,20.69
2023-05-14T14:12:09.118Z,20.59
2023-05-14T14:14:36.037Z,20.53
2023-05-14T14:17:03.084Z,20.35
2023-05-14T14:19:30.122Z,20.29
2023-05-14T14:21:56.988Z,20.17
2023-05-14T14:24:23.830Z,20.01
2023-05-14T14:26:50.828Z,19.91
2023-05-14T14:29:17.600Z,19.83
2023-05-14T14:31:44.487Z,19.79
2023-05-14T14:34:11.485Z,19.55
2023-05-14T14:36:38.469Z,19.29
2023-05-14T14:39:06.185Z,19.42
2023-05-14T14:41:35.897Z,19.53
2023-05-14T14:44:08.623Z,19.56
2023-05-14T16:43:06.164Z,20.79
2023-05-14T16:45:50.841Z,20.62
2023-05-14T17:01:56.104Z,20.24
2023-05-14T17:15:14.091Z,19.17
2023-05-14T17:17:41.349Z,18.99
2023-05-14T18:06:22.536Z,16.73
2023-05-14T18:54:55.954Z,12.90
2023-05-14T19:08:29.608Z,12.41
2023-05-14T19:19:02.730Z,12.16
2023-05-14T19:21:43.632Z,12.06
2023-05-14T19:29:37.149Z,11.80
2023-05-14T19:34:53.918Z,11.53
2023-05-14T19:40:09.798Z,11.31
2023-05-14T19:58:45.988Z,10.89
2023-05-14T20:23:11.207Z,10.62
2023-05-14T20:25:38.134Z,10.57
2023-05-14T20:28:07.295Z,10.58
2023-05-14T20:30:39.674Z,10.62
2023-05-14T20:33:09.629Z,10.55
2023-05-14T20:35:36.746Z,10.55
2023-05-14T20:38:06.520Z,10.51
2023-05-14T20:40:39.827Z,10.48
2023-05-14T20:43:12.443Z,10.44
2023-05-14T20:45:39.629Z,10.39
2023-05-14T20:48:11.427Z,10.33
2023-05-14T20:50:41.728Z,10.34
2023-05-14T20:53:14.344Z,10.29
2023-05-14T20:55:41.487Z,10.32
2023-05-14T20:58:11.539Z,10.34
2023-05-14T21:00:40.642Z,10.35
2023-05-14T21:03:07.543Z,10.27
2023-05-14T21:05:35.250Z,10.22
2023-05-14T21:08:01.995Z,10.15
2023-05-14T21:10:37.044Z,10.10
2023-05-14T21:13:10.953Z,10.08
2023-05-14T21:15:37.813Z,10.08
2023-05-14T21:18:05.176Z,10.02
2023-05-14T21:20:32.230Z,10.00
2023-05-14T21:22:59.209Z,9.97
2023-05-14T21:25:28.935Z,9.98
2023-05-14T21:27:59.022Z,9.94
2023-05-14T21:30:25.948Z,9.94
2023-05-14T21:32:55.724Z,9.90
2023-05-14T21:35:22.831Z,9.84
2023-05-14T21:37:53.220Z,9.80
2023-05-14T21:40:20.229Z,9.78
2023-05-14T21:42:47.230Z,9.78
2023-05-14T21:45:13.944Z,9.78
2023-05-14T21:47:57.046Z,9.70
2023-05-14T21:50:38.468Z,9.65
2023-05-14T21:53:08.794Z,9.56
2023-05-14T21:55:36.065Z,9.54
2023-05-14T21:58:03.524Z,9.50
2023-05-14T22:00:38.089Z,9.45
2023-05-14T22:03:08.113Z,9.43
2023-05-14T22:05:35.312Z,9.43
2023-05-14T22:08:02.196Z,9.42
2023-05-14T22:10:32.796Z,9.36
2023-05-14T22:12:59.465Z,9.37
2023-05-14T22:15:29.169Z,9.34
2023-05-14T22:17:56.900Z,9.36
2023-05-14T22:20:23.846Z,9.35
2023-05-14T22:23:03.329Z,9.30
2023-05-14T22:25:30.270Z,9.23
2023-05-14T22:28:00.367Z,9.19
2023-05-14T22:30:27.156Z,9.21
2023-05-14T22:32:56.789Z,9.19
2023-05-14T22:35:26.710Z,9.19
2023-05-14T22:37:56.569Z,9.12
2023-05-14T22:40:23.384Z,9.13
2023-05-14T22:42:50.367Z,9.11
2023-05-14T22:45:20.230Z,9.07
2023-05-14T22:47:47.045Z,9.04
2023-05-14T22:50:14.115Z,9.04
2023-05-14T22:52:41.673Z,9.02
2023-05-14T22:55:09.248Z,9.03
2023-05-14T22:57:38.792Z,8.99
2023-05-14T23:00:09.971Z,8.94
2023-05-14T23:02:36.820Z,8.92
2023-05-14T23:05:06.599Z,8.90
2023-05-14T23:07:33.830Z,8.88
2023-05-14T23:10:03.522Z,8.81
2023-05-14T23:12:36.644Z,8.80
2023-05-14T23:15:07.266Z,8.80
2023-05-14T23:17:34.404Z,8.77
2023-05-14T23:20:01.147Z,8.77
2023-05-14T23:22:28.275Z,8.71
2023-05-14T23:25:07.816Z,8.70
2023-05-14T23:27:35.698Z,8.69
2023-05-14T23:30:07.134Z,8.72
2023-05-14T23:32:33.973Z,8.67
2023-05-14T23:35:02.844Z,8.62
2023-05-14T23:37:30.020Z,8.58
2023-05-14T23:39:59.854Z,8.58
2023-05-14T23:42:26.628Z,8.51
2023-05-14T23:44:56.387Z,8.44
2023-05-14T23:47:26.328Z,8.44
2023-05-14T23:49:55.570Z,8.47
2023-05-14T23:52:22.411Z,8.48
2023-05-14T23:54:49.329Z,8.48
2023-05-14T23:57:16.234Z,8.47
2023-05-14T23:59:43.031Z,8.43
